createdAt,value
2022-10-23T00:00:40.538Z,65.05
2022-10-23T00:03:07.059Z,64.92
2022-10-23T00:05:33.557Z,64.82
2022-10-23T00:08:00.315Z,64.88
2022-10-23T00:10:27.348Z,65.15
2022-10-23T00:12:53.849Z,65.18
2022-10-23T00:15:21.486Z,64.61
2022-10-23T00:17:47.968Z,64.85
2022-10-23T00:20:14.851Z,65.10
2022-10-23T00:22:41.410Z,65.00
2022-10-23T00:25:08.615Z,65.03
2022-10-23T00:27:35.475Z,64.88
2022-10-23T00:30:02.249Z,64.96
2022-10-23T00:32:28.865Z,64.96
2022-10-23T00:34:55.419Z,64.88
2022-10-23T00:37:21.907Z,65.04
2022-10-23T00:39:48.530Z,64.77
2022-10-23T00:42:18.388Z,65.00
2022-10-23T00:44:44.739Z,64.78
2022-10-23T00:47:11.399Z,64.69
2022-10-23T00:49:40.714Z,64.84
2022-10-23T00:52:10.244Z,65.13
2022-10-23T00:54:38.115Z,64.95
2022-10-23T00:57:05.776Z,64.80
2022-10-23T00:59:32.436Z,64.97
2022-10-23T01:01:59.446Z,65.11
2022-10-23T01:04:26.114Z,64.82
2022-10-23T01:06:58.396Z,64.99
2022-10-23T01:09:30.857Z,65.05
2022-10-23T01:12:39.596Z,64.86
2022-10-23T01:15:10.072Z,64.95
2022-10-23T01:17:44.439Z,65.18
2022-10-23T01:20:20.253Z,65.00
2022-10-23T01:23:15.069Z,64.86
2022-10-23T01:25:59.903Z,64.84
2022-10-23T01:28:32.491Z,64.85
2022-10-23T01:30:59.711Z,65.06
2022-10-23T01:33:28.929Z,64.88
2022-10-23T01:36:01.897Z,64.97
2022-10-23T01:38:39.048Z,64.80
2022-10-23T01:41:17.471Z,65.03
2022-10-23T01:43:45.375Z,64.97
2022-10-23T01:46:14.296Z,64.90
2022-10-23T01:48:40.782Z,65.03
2022-10-23T01:51:09.073Z,64.88
2022-10-23T01:53:38.445Z,64.92
2022-10-23T01:56:06.500Z,65.15
2022-10-23T01:58:32.991Z,65.01
2022-10-23T02:01:01.418Z,64.85
2022-10-23T02:03:28.853Z,64.98
2022-10-23T02:05:55.323Z,64.90
2022-10-23T02:08:21.923Z,64.95
2022-10-23T02:10:55.036Z,65.04
2022-10-23T02:13:44.593Z,64.90
2022-10-23T02:16:29.470Z,65.13
2022-10-23T02:19:06.874Z,64.78
2022-10-23T02:21:39.294Z,65.10
2022-10-23T02:24:11.777Z,65.21
2022-10-23T02:27:10.044Z,65.16
2022-10-23T02:29:39.137Z,65.29
2022-10-23T02:32:07.285Z,64.98
2022-10-23T02:34:33.752Z,65.02
2022-10-23T02:37:00.245Z,65.12
2022-10-23T02:39:27.240Z,65.04
2022-10-23T02:42:11.352Z,65.04
2022-10-23T02:44:54.691Z,64.92
2022-10-23T02:47:43.531Z,65.07
2022-10-23T02:50:26.297Z,64.99
2022-10-23T02:53:06.043Z,64.98
2022-10-23T02:55:32.456Z,65.15
2022-10-23T02:58:23.551Z,65.14
2022-10-23T03:00:55.139Z,65.09
2022-10-23T03:03:24.755Z,65.18
2022-10-23T03:05:51.245Z,65.04
2022-10-23T03:08:17.755Z,65.14
2022-10-23T03:10:44.423Z,65.08
2022-10-23T03:13:11.270Z,64.97
2022-10-23T03:15:37.795Z,65.04
2022-10-23T03:18:04.338Z,65.08
2022-10-23T03:20:30.875Z,65.12
2022-10-23T03:22:57.356Z,64.96
2022-10-23T03:25:23.889Z,65.03
2022-10-23T03:27:50.403Z,65.15
2022-10-23T03:30:17.175Z,64.99
2022-10-23T03:32:43.730Z,65.13
2022-10-23T03:35:10.620Z,64.96
2022-10-23T03:37:37.131Z,65.32
2022-10-23T03:40:04.261Z,64.84
2022-10-23T03:42:30.740Z,65.08
2022-10-23T03:44:57.305Z,64.99
2022-10-23T03:47:23.819Z,64.86
2022-10-23T03:49:50.324Z,65.04
2022-10-23T03:52:16.822Z,65.04
2022-10-23T03:54:43.359Z,65.22
2022-10-23T03:57:09.863Z,65.13
2022-10-23T03:59:36.414Z,65.06
2022-10-23T04:02:02.994Z,64.95
2022-10-23T04:04:29.613Z,65.16
2022-10-23T04:06:56.136Z,65.02
2022-10-23T04:09:22.768Z,64.59
2022-10-23T04:11:49.238Z,64.89
2022-10-23T04:14:15.748Z,64.78
2022-10-23T04:16:42.266Z,65.08
2022-10-23T04:19:08.958Z,64.85
2022-10-23T04:21:35.471Z,64.91
2022-10-23T04:24:01.950Z,65.08
2022-10-23T04:26:28.457Z,64.99
2022-10-23T04:28:55.018Z,64.90
2022-10-23T04:31:21.538Z,65.03
2022-10-23T04:33:48.239Z,65.02
2022-10-23T04:36:14.726Z,64.98
2022-10-23T04:38:41.239Z,65.17
2022-10-23T04:41:07.844Z,65.05
2022-10-23T04:43:34.391Z,64.97
2022-10-23T04:46:00.922Z,65.02
2022-10-23T04:48:29.133Z,64.89
2022-10-23T04:50:59.976Z,65.02
2022-10-23T04:53:27.070Z,65.12
2022-10-23T04:55:54.788Z,64.84
2022-10-23T04:58:21.431Z,65.21
2022-10-23T05:00:48.138Z,65.31
2022-10-23T05:03:16.173Z,65.10
2022-10-23T05:05:42.731Z,65.03
2022-10-23T05:08:09.443Z,65.15
2022-10-23T05:10:36.056Z,64.95
2022-10-23T05:13:02.772Z,64.90
2022-10-23T05:15:29.376Z,65.06
2022-10-23T05:17:58.554Z,65.07
2022-10-23T05:20:26.816Z,64.92
2022-10-23T05:22:53.558Z,65.09
2022-10-23T05:25:20.040Z,65.23
2022-10-23T05:27:46.547Z,65.02
2022-10-23T05:30:13.460Z,65.28
2022-10-23T05:32:40.124Z,65.12
2022-10-23T05:35:08.499Z,65.07
2022-10-23T05:37:37.070Z,65.00
2022-10-23T05:40:03.833Z,64.98
2022-10-23T05:42:30.331Z,64.90
2022-10-23T05:44:56.809Z,65.38
2022-10-23T05:47:23.304Z,65.29
2022-10-23T05:49:49.788Z,65.16
2022-10-23T05:52:16.286Z,65.12
2022-10-23T05:54:42.792Z,65.25
2022-10-23T05:57:09.338Z,65.15
2022-10-23T05:59:35.896Z,65.14
2022-10-23T06:02:02.521Z,64.58
2022-10-23T06:04:29.110Z,63.04
2022-10-23T06:06:55.579Z,61.76
2022-10-23T06:09:22.089Z,61.07
2022-10-23T06:11:48.574Z,60.25
2022-10-23T06:14:15.106Z,59.30
2022-10-23T06:16:41.630Z,58.28
2022-10-23T06:19:11.052Z,57.99
2022-10-23T06:21:38.322Z,57.33
2022-10-23T06:24:06.059Z,56.76
2022-10-23T06:26:32.595Z,56.88
2022-10-23T06:28:59.344Z,56.97
2022-10-23T06:31:27.791Z,56.67
2022-10-23T06:33:57.971Z,56.08
2022-10-23T06:36:24.612Z,55.89
2022-10-23T06:38:52.081Z,55.53
2022-10-23T06:41:20.491Z,55.04
2022-10-23T06:43:50.621Z,55.25
2022-10-23T06:46:17.647Z,54.74
2022-10-23T06:48:44.442Z,54.41
2022-10-23T06:51:12.363Z,54.45
2022-10-23T06:53:38.916Z,54.32
2022-10-23T06:56:06.360Z,54.61
2022-10-23T06:58:33.900Z,55.46
2022-10-23T07:01:01.864Z,56.01
2022-10-23T07:03:28.612Z,56.92
2022-10-23T07:05:55.115Z,57.42
2022-10-23T07:08:21.833Z,57.75
2022-10-23T07:10:48.819Z,58.57
2022-10-23T07:13:15.357Z,58.77
2022-10-23T07:15:41.910Z,58.76
2022-10-23T07:18:14.312Z,59.35
2022-10-23T07:20:43.949Z,59.54
2022-10-23T07:23:11.545Z,59.56
2022-10-23T07:25:38.100Z,59.76
2022-10-23T07:28:04.713Z,60.04
2022-10-23T07:30:31.360Z,59.99
2022-10-23T07:32:57.836Z,60.24
2022-10-23T07:35:24.488Z,60.52
2022-10-23T07:37:50.992Z,60.35
2022-10-23T07:40:18.769Z,60.38
2022-10-23T07:42:45.273Z,60.19
2022-10-23T07:45:12.499Z,60.58
2022-10-23T07:47:39.201Z,60.78
2022-10-23T07:50:06.103Z,60.75
2022-10-23T07:52:35.805Z,60.95
2022-10-23T07:55:02.665Z,60.83
2022-10-23T07:57:29.174Z,61.06
2022-10-23T07:59:55.690Z,61.07
2022-10-23T08:02:22.284Z,61.01
2022-10-23T08:04:49.588Z,61.36
2022-10-23T08:07:16.132Z,61.18
2022-10-23T08:09:42.691Z,61.11
2022-10-23T08:12:09.603Z,61.23
2022-10-23T08:14:36.107Z,61.33
2022-10-23T08:17:03.173Z,61.37
2022-10-23T08:19:29.809Z,61.40
2022-10-23T08:21:57.291Z,60.84
2022-10-23T08:24:23.837Z,60.14
2022-10-23T08:26:50.367Z,59.71
2022-10-23T08:29:17.044Z,59.75
2022-10-23T08:31:43.585Z,59.97
2022-10-23T08:34:10.092Z,60.76
2022-10-23T08:36:36.798Z,60.63
2022-10-23T08:39:03.329Z,60.75
2022-10-23T08:41:40.604Z,60.90
2022-10-23T08:44:09.420Z,60.93
2022-10-23T08:46:39.477Z,61.18
2022-10-23T08:49:22.828Z,61.33
2022-10-23T08:51:50.678Z,61.05
2022-10-23T08:54:21.488Z,61.29
2022-10-23T08:57:12.980Z,61.17
2022-10-23T09:00:03.237Z,61.32
2022-10-23T09:02:48.126Z,61.27
2022-10-23T09:05:19.310Z,61.42
2022-10-23T09:08:21.420Z,61.41
2022-10-23T09:11:09.724Z,61.44
2022-10-23T09:13:57.137Z,61.67
2022-10-23T09:16:55.722Z,61.55
2022-10-23T09:19:29.366Z,61.39
2022-10-23T09:21:55.925Z,61.48
2022-10-23T09:24:23.576Z,61.69
2022-10-23T09:26:51.147Z,61.66
2022-10-23T09:29:24.569Z,61.75
2022-10-23T09:31:55.913Z,61.76
2022-10-23T09:34:24.187Z,61.73
2022-10-23T09:36:52.709Z,61.65
2022-10-23T09:39:39.445Z,61.78
2022-10-23T09:42:22.746Z,61.73
2022-10-23T09:44:51.031Z,61.90
2022-10-23T09:47:22.567Z,61.75
2022-10-23T09:49:56.578Z,61.86
2022-10-23T09:52:25.644Z,61.79
2022-10-23T09:55:02.489Z,62.14
2022-10-23T09:57:50.899Z,61.80
2022-10-23T10:00:19.851Z,61.81
2022-10-23T10:03:06.316Z,61.97
2022-10-23T10:05:33.656Z,61.76
2022-10-23T10:08:09.962Z,61.94
2022-10-23T10:10:39.137Z,62.05
2022-10-23T10:13:15.164Z,61.98
2022-10-23T10:15:48.849Z,61.97
2022-10-23T10:18:24.028Z,61.90
2022-10-23T10:20:50.375Z,61.98
2022-10-23T10:23:23.248Z,61.74
2022-10-23T10:26:08.413Z,62.00
2022-10-23T10:28:53.405Z,62.14
2022-10-23T10:31:26.692Z,62.02
2022-10-23T10:34:02.743Z,62.14
2022-10-23T10:36:50.005Z,62.19
2022-10-23T10:39:38.305Z,62.15
2022-10-23T10:42:23.754Z,62.24
2022-10-23T10:45:07.524Z,62.36
2022-10-23T10:47:52.374Z,62.36
2022-10-23T10:50:27.899Z,62.20
2022-10-23T10:53:10.057Z,62.43
2022-10-23T10:55:41.248Z,62.39
2022-10-23T10:58:22.157Z,62.41
2022-10-23T11:00:52.529Z,62.27
2022-10-23T11:03:25.177Z,62.17
2022-10-23T11:05:51.718Z,62.23
2022-10-23T11:08:27.907Z,62.18
2022-10-23T11:10:57.943Z,62.26
2022-10-23T11:13:34.273Z,62.07
2022-10-23T11:16:04.755Z,62.16
2022-10-23T11:18:31.292Z,62.12
2022-10-23T11:21:10.612Z,62.17
2022-10-23T11:24:14.253Z,62.38
2022-10-23T11:26:52.002Z,62.24
2022-10-23T11:29:42.816Z,62.41
2022-10-23T11:32:36.757Z,62.29
2022-10-23T11:35:14.263Z,62.39
2022-10-23T11:37:40.924Z,62.28
2022-10-23T11:40:07.460Z,62.27
2022-10-23T11:42:54.451Z,62.26
2022-10-23T11:45:34.238Z,62.51
2022-10-23T11:48:13.915Z,62.36
2022-10-23T11:50:46.481Z,62.49
2022-10-23T11:53:27.989Z,62.45
2022-10-23T11:56:20.890Z,62.32
2022-10-23T11:58:57.198Z,62.27
2022-10-23T12:01:28.509Z,62.43
2022-10-23T12:04:15.672Z,62.32
2022-10-23T12:06:51.234Z,62.54
2022-10-23T12:09:23.608Z,62.41
2022-10-23T12:12:01.743Z,62.41
2022-10-23T12:14:47.534Z,62.32
2022-10-23T12:17:23.233Z,62.36
2022-10-23T12:20:13.125Z,62.39
2022-10-23T12:22:39.510Z,62.50
2022-10-23T12:25:11.944Z,62.19
2022-10-23T12:27:52.680Z,62.43
2022-10-23T12:30:21.572Z,62.53
2022-10-23T12:33:04.276Z,62.45
2022-10-23T12:35:47.544Z,62.44
2022-10-23T12:38:16.450Z,62.58
2022-10-23T12:40:46.790Z,62.45
2022-10-23T12:43:33.177Z,62.44
2022-10-23T12:46:17.717Z,62.81
2022-10-23T12:48:49.528Z,62.68
2022-10-23T12:51:30.839Z,62.70
2022-10-23T12:53:57.532Z,62.74
2022-10-23T12:56:29.435Z,62.83
2022-10-23T12:59:00.652Z,62.61
2022-10-23T13:01:31.679Z,62.75
2022-10-23T13:04:07.558Z,62.67
2022-10-23T13:06:34.124Z,62.78
2022-10-23T13:09:00.647Z,62.72
2022-10-23T13:11:27.187Z,62.64
2022-10-23T13:13:53.727Z,62.87
2022-10-23T13:16:21.949Z,62.81
2022-10-23T13:18:48.558Z,62.99
2022-10-23T13:21:22.918Z,62.77
2022-10-23T13:23:49.770Z,63.03
2022-10-23T13:26:33.601Z,62.76
2022-10-23T13:29:02.279Z,62.85
2022-10-23T13:31:32.581Z,62.87
2022-10-23T13:33:58.989Z,62.84
2022-10-23T13:36:27.372Z,62.78
2022-10-23T13:39:02.816Z,62.68
2022-10-23T13:41:34.951Z,62.81
2022-10-23T13:44:01.449Z,62.33
2022-10-23T13:46:27.997Z,62.83
2022-10-23T13:48:54.454Z,62.91
2022-10-23T13:51:30.406Z,62.87
2022-10-23T13:53:57.079Z,62.96
2022-10-23T13:56:24.950Z,63.01
2022-10-23T13:58:51.435Z,63.02
2022-10-23T14:01:26.785Z,63.03
2022-10-23T14:03:53.599Z,63.00
2022-10-23T14:06:20.108Z,63.38
2022-10-23T14:08:46.727Z,63.14
2022-10-23T14:13:45.947Z,63.07
2022-10-23T14:16:13.110Z,63.22
2022-10-23T14:18:39.624Z,63.25
2022-10-23T14:21:08.613Z,63.01
2022-10-23T14:23:35.094Z,63.23
2022-10-23T14:26:05.148Z,63.32
2022-10-23T14:28:31.753Z,63.17
2022-10-23T14:30:58.284Z,63.41
2022-10-23T14:33:24.756Z,63.25
2022-10-23T14:35:51.251Z,63.47
2022-10-23T14:38:17.751Z,63.34
2022-10-23T14:40:44.240Z,63.45
2022-10-23T14:43:10.718Z,63.35
2022-10-23T14:45:37.569Z,63.28
2022-10-23T14:48:04.212Z,63.33
2022-10-23T14:50:35.254Z,63.47
2022-10-23T14:53:01.815Z,63.38
2022-10-23T14:55:28.315Z,63.43
2022-10-23T14:57:55.518Z,63.32
2022-10-23T15:00:22.809Z,63.57
2022-10-23T15:02:49.316Z,63.99
2022-10-23T15:05:16.077Z,64.23
2022-10-23T15:07:42.580Z,64.29
2022-10-23T15:10:09.666Z,64.01
2022-10-23T15:12:36.756Z,64.00
2022-10-23T15:15:06.661Z,63.86
2022-10-23T15:17:34.060Z,64.74
2022-10-23T15:20:00.791Z,66.09
2022-10-23T15:22:27.720Z,65.72
2022-10-23T15:24:55.045Z,65.15
2022-10-23T15:27:21.539Z,65.14
2022-10-23T15:29:48.084Z,65.11
2022-10-23T15:32:14.607Z,65.33
2022-10-23T15:34:42.810Z,65.11
2022-10-23T15:37:09.824Z,64.87
2022-10-23T15:39:36.376Z,64.90
2022-10-23T15:42:04.460Z,64.81
2022-10-23T15:44:31.865Z,64.82
2022-10-23T15:46:58.502Z,64.72
2022-10-23T15:49:25.440Z,64.80
2022-10-23T15:51:52.067Z,64.77
2022-10-23T15:54:19.290Z,64.72
2022-10-23T15:56:46.852Z,64.84
2022-10-23T15:59:13.557Z,64.65
2022-10-23T16:01:40.189Z,64.97
2022-10-23T16:04:06.836Z,65.00
2022-10-23T16:06:33.386Z,64.94
2022-10-23T16:08:59.952Z,65.02
2022-10-23T16:11:31.150Z,64.96
2022-10-23T16:13:58.168Z,64.89
2022-10-23T16:16:24.860Z,65.20
2022-10-23T16:18:51.410Z,65.09
2022-10-23T16:21:17.915Z,64.96
2022-10-23T16:23:44.447Z,64.99
2022-10-23T16:26:10.918Z,64.98
2022-10-23T16:28:37.968Z,64.99
2022-10-23T16:31:30.919Z,65.20
2022-10-23T16:33:58.881Z,64.96
2022-10-23T16:36:25.561Z,65.18
2022-10-23T16:38:52.062Z,65.00
2022-10-23T16:41:18.546Z,65.09
2022-10-23T16:43:45.057Z,65.49
2022-10-23T16:46:16.140Z,65.27
2022-10-23T16:48:42.779Z,65.46
2022-10-23T16:51:11.296Z,65.52
2022-10-23T16:53:37.844Z,65.41
2022-10-23T16:56:05.328Z,65.46
2022-10-23T16:58:31.873Z,65.66
2022-10-23T17:01:05.946Z,65.56
2022-10-23T17:03:36.753Z,65.29
2022-10-23T17:06:06.168Z,65.33
2022-10-23T17:08:35.301Z,65.58
2022-10-23T17:11:08.994Z,65.54
2022-10-23T17:13:36.132Z,65.46
2022-10-23T17:16:08.197Z,65.38
2022-10-23T17:18:36.127Z,65.54
2022-10-23T17:21:04.337Z,65.53
2022-10-23T17:23:30.894Z,65.53
2022-10-23T17:25:57.661Z,65.70
2022-10-23T17:28:24.205Z,65.55
2022-10-23T17:30:50.774Z,65.38
2022-10-23T17:33:17.315Z,65.63
2022-10-23T17:35:45.292Z,65.71
2022-10-23T17:38:12.809Z,65.52
2022-10-23T17:40:39.875Z,63.78
2022-10-23T17:43:06.410Z,63.98
2022-10-23T17:45:34.771Z,64.42
2022-10-23T17:48:01.302Z,64.54
2022-10-23T17:50:27.829Z,64.69
2022-10-23T17:52:54.333Z,64.77
2022-10-23T17:55:20.813Z,64.81
2022-10-23T17:57:47.348Z,64.73
2022-10-23T18:00:14.032Z,65.02
2022-10-23T18:02:40.527Z,65.06
2022-10-23T18:05:07.308Z,65.00
2022-10-23T18:07:33.813Z,65.23
2022-10-23T18:10:00.279Z,65.31
2022-10-23T18:12:28.777Z,65.31
2022-10-23T18:14:56.340Z,65.23
2022-10-23T18:17:22.884Z,65.42
2022-10-23T18:19:52.327Z,65.41
2022-10-23T18:24:50.182Z,65.46
2022-10-23T18:27:16.667Z,65.42
2022-10-23T18:29:43.535Z,65.36
2022-10-23T18:32:10.120Z,65.51
2022-10-23T18:34:36.694Z,65.58
2022-10-23T18:37:03.194Z,65.44
2022-10-23T18:39:29.706Z,65.59
2022-10-23T18:41:57.246Z,65.58
2022-10-23T18:44:24.503Z,65.50
2022-10-23T18:46:51.250Z,65.55
2022-10-23T18:49:18.291Z,65.48
2022-10-23T18:51:44.812Z,65.52
2022-10-23T18:54:13.147Z,65.50
2022-10-23T18:56:39.959Z,65.55
2022-10-23T18:59:08.091Z,65.46
2022-10-23T19:01:34.761Z,65.58
2022-10-23T19:04:01.478Z,65.61
2022-10-23T19:06:28.486Z,65.39
2022-10-23T19:08:55.027Z,65.45
2022-10-23T19:11:22.429Z,65.51
2022-10-23T19:13:48.980Z,65.55
2022-10-23T19:16:21.780Z,65.45
2022-10-23T19:18:50.536Z,65.50
2022-10-23T19:21:17.872Z,65.56
2022-10-23T19:23:44.352Z,65.73
2022-10-23T19:26:11.991Z,65.59
2022-10-23T19:28:40.149Z,65.63
2022-10-23T19:31:07.834Z,65.83
2022-10-23T19:33:36.070Z,65.92
2022-10-23T19:36:05.733Z,65.65
2022-10-23T19:38:34.193Z,65.70
2022-10-23T19:41:01.463Z,65.64
2022-10-23T19:43:27.967Z,65.81
2022-10-23T19:45:54.444Z,65.71
2022-10-23T19:48:21.014Z,65.53
2022-10-23T19:50:47.500Z,65.70
2022-10-23T19:53:14.208Z,65.76
2022-10-23T19:55:40.688Z,65.71
2022-10-23T19:58:07.192Z,65.65
2022-10-23T20:00:33.664Z,65.66
2022-10-23T20:03:00.153Z,65.55
2022-10-23T20:05:26.651Z,65.65
2022-10-23T20:07:53.158Z,65.76
2022-10-23T20:10:19.722Z,65.69
2022-10-23T20:12:56.361Z,65.91
2022-10-23T20:15:28.975Z,65.69
2022-10-23T20:17:55.456Z,66.14
2022-10-23T20:20:22.733Z,65.97
2022-10-23T20:22:53.249Z,65.97
2022-10-23T20:25:21.910Z,65.93
2022-10-23T20:27:48.460Z,66.00
2022-10-23T20:30:14.960Z,65.86
2022-10-23T20:32:41.629Z,65.79
2022-10-23T20:35:09.027Z,65.75
2022-10-23T20:37:35.532Z,65.62
2022-10-23T20:40:02.031Z,65.89
2022-10-23T20:42:28.522Z,65.83
2022-10-23T20:44:54.973Z,65.71
2022-10-23T20:47:21.476Z,65.80
2022-10-23T20:49:48.049Z,65.96
2022-10-23T20:52:14.555Z,65.89
2022-10-23T20:54:41.446Z,65.91
2022-10-23T20:57:08.007Z,66.28
2022-10-23T20:59:35.288Z,65.89
2022-10-23T21:02:01.936Z,65.89
2022-10-23T21:04:28.652Z,66.10
2022-10-23T21:07:12.002Z,66.18
2022-10-23T21:09:41.472Z,66.21
2022-10-23T21:12:08.363Z,66.32
2022-10-23T21:14:35.247Z,65.91
2022-10-23T21:17:01.859Z,66.06
2022-10-23T21:19:28.446Z,66.00
2022-10-23T21:21:55.065Z,66.04
2022-10-23T21:24:21.696Z,65.99
2022-10-23T21:26:48.335Z,66.37
2022-10-23T21:29:19.539Z,66.18
2022-10-23T21:31:57.372Z,65.98
2022-10-23T21:34:24.554Z,65.88
2022-10-23T21:37:11.801Z,65.79
2022-10-23T21:39:37.572Z,66.12
2022-10-23T21:42:04.088Z,66.11
2022-10-23T21:44:30.595Z,66.03
2022-10-23T21:46:57.091Z,65.99
2022-10-23T21:49:23.615Z,66.04
2022-10-23T21:51:50.117Z,66.12
2022-10-23T21:54:16.614Z,66.11
2022-10-23T21:56:50.138Z,66.06
2022-10-23T21:59:18.544Z,66.10
2022-10-23T22:01:45.864Z,66.18
2022-10-23T22:04:14.099Z,66.13
2022-10-23T22:06:41.239Z,66.03
2022-10-23T22:09:08.046Z,65.97
2022-10-23T22:11:34.582Z,66.06
2022-10-23T22:14:01.111Z,66.03
2022-10-23T22:16:27.586Z,66.15
2022-10-23T22:18:54.096Z,65.80
2022-10-23T22:21:22.304Z,66.08
2022-10-23T22:23:49.275Z,66.03
2022-10-23T22:26:27.538Z,66.04
2022-10-23T22:28:59.929Z,66.10
2022-10-23T22:31:28.087Z,66.10
2022-10-23T22:33:55.180Z,65.94
2022-10-23T22:36:21.666Z,66.12
2022-10-23T22:38:48.143Z,66.07
2022-10-23T22:41:14.797Z,66.19
2022-10-23T22:43:41.290Z,66.17
2022-10-23T22:46:17.480Z,66.26
2022-10-23T22:48:44.327Z,66.33
2022-10-23T22:51:11.954Z,66.11
2022-10-23T22:53:38.460Z,66.14
2022-10-23T22:56:09.329Z,66.16
2022-10-23T22:58:35.880Z,65.95
2022-10-23T23:01:17.062Z,66.03
2022-10-23T23:03:43.884Z,66.41
2022-10-23T23:06:10.778Z,66.24
2022-10-23T23:08:37.960Z,66.05
2022-10-23T23:11:04.643Z,66.04
2022-10-23T23:13:31.227Z,66.09
2022-10-23T23:15:57.736Z,66.15
2022-10-23T23:18:24.282Z,66.04
2022-10-23T23:20:51.027Z,66.25
2022-10-23T23:23:17.563Z,66.02
2022-10-23T23:25:45.223Z,66.13
2022-10-23T23:28:12.527Z,66.21
2022-10-23T23:30:39.892Z,66.01
2022-10-23T23:33:06.814Z,66.16
2022-10-23T23:35:33.307Z,66.24
2022-10-23T23:37:59.859Z,66.09
2022-10-23T23:40:26.375Z,66.12
2022-10-23T23:42:52.851Z,66.15
2022-10-23T23:45:19.515Z,66.15
2022-10-23T23:47:46.292Z,66.09
2022-10-23T23:50:12.991Z,65.93
2022-10-23T23:52:39.546Z,65.71
2022-10-23T23:55:06.244Z,65.81
2022-10-23T23:57:32.749Z,66.11
2022-10-23T23:59:59.527Z,65.85
